Time;durP1;ratioP1;P1;durP2;ratioP2;P2;SDS_P1;SDS_P2;PMS_P1;PMS_P2;Temp;Humidity;BMP_temperature;BMP_pressure;BME280_temperature;BME280_humidity;BME280_pressure;Samples;Min_cycle;Max_cycle;Signal;HPM_P1;HPM_P2
2021/05/12 00:00:24;;;;;;;10.73;9.53;;;13.00;99.90;;;;;;5072065;28;20197;-78
2021/05/12 00:02:53;;;;;;;13.80;11.57;;;13.00;99.90;;;;;;5060738;28;20842;-78
2021/05/12 00:05:25;;;;;;;12.13;10.43;;;13.00;99.90;;;;;;5056915;28;20527;-78
2021/05/12 00:07:54;;;;;;;13.87;11.27;;;13.00;99.90;;;;;;5056507;28;20504;-77
2021/05/12 00:10:22;;;;;;;17.67;11.80;;;13.10;99.90;;;;;;5045841;28;20471;-77
2021/05/12 00:12:48;;;;;;;13.87;10.90;;;13.10;99.90;;;;;;5060685;28;20426;-77
2021/05/12 00:15:16;;;;;;;17.03;11.77;;;13.20;99.90;;;;;;5068552;28;20818;-77
2021/05/12 00:17:45;;;;;;;12.77;11.43;;;13.20;99.90;;;;;;5065796;28;20178;-77
2021/05/12 00:20:13;;;;;;;13.50;11.27;;;13.30;99.90;;;;;;5070355;28;20497;-77
2021/05/12 00:25:10;;;;;;;16.80;11.93;;;13.20;99.90;;;;;;5072860;28;20968;-78
2021/05/12 00:27:36;;;;;;;16.23;11.90;;;13.30;99.90;;;;;;5058836;28;20655;-77
2021/05/12 00:30:04;;;;;;;16.20;12.37;;;13.30;99.90;;;;;;5051448;28;20612;-77
2021/05/12 00:32:30;;;;;;;18.43;13.47;;;13.30;99.90;;;;;;5063207;28;20439;-77
2021/05/12 00:34:55;;;;;;;16.87;12.73;;;13.30;99.90;;;;;;5052082;28;20456;-77
2021/05/12 00:37:21;;;;;;;16.37;12.40;;;13.30;99.90;;;;;;5057003;28;20185;-77
2021/05/12 00:39:47;;;;;;;16.27;13.17;;;13.30;99.90;;;;;;5066431;28;20181;-77
2021/05/12 00:42:12;;;;;;;14.43;12.50;;;13.30;99.90;;;;;;5065339;28;20553;-77
2021/05/12 00:44:38;;;;;;;19.57;13.97;;;13.40;99.90;;;;;;5052380;28;20210;-78
2021/05/12 00:47:05;;;;;;;18.93;13.10;;;13.40;99.90;;;;;;5060437;28;20178;-78
2021/05/12 00:49:32;;;;;;;15.17;13.50;;;13.40;99.90;;;;;;5047930;28;20193;-77
2021/05/12 00:51:58;;;;;;;15.93;12.87;;;13.30;99.90;;;;;;5066302;28;20432;-78
2021/05/12 00:54:24;;;;;;;15.70;13.37;;;13.30;99.90;;;;;;5075440;28;20464;-78
2021/05/12 00:56:50;;;;;;;17.83;12.80;;;13.30;99.90;;;;;;5071462;28;20261;-77
2021/05/12 00:59:16;;;;;;;16.17;11.80;;;13.30;99.90;;;;;;5059703;28;20554;-77
2021/05/12 01:01:42;;;;;;;16.20;13.67;;;13.40;99.90;;;;;;5057401;28;20470;-77
2021/05/12 01:04:08;;;;;;;16.63;11.30;;;13.50;99.90;;;;;;5069744;28;20925;-76
2021/05/12 01:06:38;;;;;;;13.33;11.13;;;13.50;99.90;;;;;;5067898;28;20186;-77
2021/05/12 01:09:08;;;;;;;15.80;11.83;;;13.50;99.90;;;;;;5068864;28;20436;-78
2021/05/12 01:11:35;;;;;;;14.70;13.20;;;13.50;99.90;;;;;;5050831;28;20931;-77
2021/05/12 01:14:01;;;;;;;16.63;12.00;;;13.50;99.90;;;;;;5066730;28;20917;-77
2021/05/12 01:16:27;;;;;;;14.37;12.07;;;13.50;99.90;;;;;;5078498;28;20444;-78
2021/05/12 01:18:52;;;;;;;15.40;11.90;;;13.60;99.90;;;;;;5071517;28;20274;-77
2021/05/12 01:21:18;;;;;;;13.30;12.00;;;13.60;99.90;;;;;;5066369;28;20639;-77
2021/05/12 01:23:47;;;;;;;15.90;13.77;;;13.70;99.90;;;;;;5074927;28;20178;-77
2021/05/12 01:27:21;;;;;;;17.07;12.93;;;13.50;99.90;;;;;;5069904;28;20212;-78
2021/05/12 01:30:42;;;;;;;17.50;12.40;;;13.30;99.90;;;;;;5001130;28;20898;-78
2021/05/12 01:33:13;;;;;;;14.00;12.27;;;13.20;99.90;;;;;;5017520;28;20447;-78
2021/05/12 01:35:58;;;;;;;14.80;10.97;;;13.20;99.90;;;;;;5017903;28;20484;-77
2021/05/12 01:38:49;;;;;;;20.57;12.47;;;13.20;99.90;;;;;;5035280;28;20436;-78
2021/05/12 01:41:35;;;;;;;16.30;11.90;;;13.10;99.90;;;;;;5007647;28;20852;-77
2021/05/12 01:44:05;;;;;;;18.53;12.93;;;13.00;99.90;;;;;;5044253;28;20519;-77
2021/05/12 01:46:31;;;;;;;16.83;12.40;;;13.00;99.90;;;;;;5074475;28;20439;-77
2021/05/12 01:48:57;;;;;;;15.97;11.03;;;13.00;99.90;;;;;;5062940;28;20444;-76
2021/05/12 01:51:22;;;;;;;17.93;11.73;;;13.10;99.90;;;;;;5061538;28;20217;-76
2021/05/12 01:53:48;;;;;;;12.50;10.43;;;13.10;99.90;;;;;;5067163;28;20174;-77
2021/05/12 01:56:13;;;;;;;12.90;11.47;;;13.10;99.90;;;;;;5069908;28;20199;-76
2021/05/12 01:58:40;;;;;;;18.70;10.33;;;13.10;99.90;;;;;;5058769;28;20189;-76
2021/05/12 02:01:06;;;;;;;13.30;10.20;;;13.10;99.90;;;;;;5070120;28;20647;-77
2021/05/12 02:03:32;;;;;;;14.03;10.00;;;13.00;99.90;;;;;;5055401;28;20447;-77
2021/05/12 02:05:58;;;;;;;17.27;10.97;;;13.00;99.90;;;;;;5061205;28;20931;-77
2021/05/12 02:08:27;;;;;;;15.37;9.60;;;12.90;99.90;;;;;;5070009;28;20444;-77
2021/05/12 02:10:55;;;;;;;14.30;9.77;;;12.90;99.90;;;;;;5065996;28;20489;-76
2021/05/12 02:13:23;;;;;;;15.77;9.77;;;12.90;99.90;;;;;;5060529;28;20490;-77
2021/05/12 02:15:49;;;;;;;15.40;9.50;;;12.90;99.90;;;;;;5070820;28;20460;-76
2021/05/12 02:18:14;;;;;;;17.30;9.43;;;13.00;99.90;;;;;;5071755;28;20424;-77
2021/05/12 02:20:40;;;;;;;11.13;8.80;;;13.00;99.90;;;;;;5057747;28;20278;-77
2021/05/12 02:23:09;;;;;;;13.80;9.20;;;13.20;99.90;;;;;;5073557;28;20628;-76
2021/05/12 02:25:35;;;;;;;13.70;9.47;;;13.00;99.90;;;;;;5066181;28;20488;-77
2021/05/12 02:28:00;;;;;;;12.03;9.37;;;13.00;99.90;;;;;;5055387;28;20428;-77
2021/05/12 02:30:26;;;;;;;9.63;7.63;;;13.10;99.90;;;;;;5069620;28;20463;-77
2021/05/12 02:32:55;;;;;;;11.53;8.60;;;13.10;99.90;;;;;;5060305;28;20214;-77
2021/05/12 02:35:20;;;;;;;14.57;8.57;;;13.30;99.90;;;;;;5053760;28;20532;-77
2021/05/12 02:37:46;;;;;;;12.13;8.83;;;13.40;99.90;;;;;;5053661;28;20513;-77
2021/05/12 02:40:16;;;;;;;14.13;9.00;;;13.50;99.90;;;;;;5067654;28;20318;-77
2021/05/12 02:42:42;;;;;;;10.33;8.20;;;13.60;99.90;;;;;;5060256;28;20194;-77
2021/05/12 02:45:09;;;;;;;10.60;8.10;;;13.70;99.90;;;;;;5072140;28;20472;-77
2021/05/12 02:47:35;;;;;;;11.40;9.10;;;13.70;99.90;;;;;;5073028;28;20428;-77
2021/05/12 02:50:02;;;;;;;10.07;7.93;;;13.80;99.90;;;;;;5057065;28;20498;-77
2021/05/12 02:52:27;;;;;;;13.73;9.07;;;13.70;99.90;;;;;;5072182;28;20539;-77
2021/05/12 02:54:53;;;;;;;13.97;8.90;;;13.80;99.90;;;;;;5053760;28;20536;-77
2021/05/12 02:57:19;;;;;;;10.60;8.20;;;13.80;99.90;;;;;;5054494;28;20173;-77
2021/05/12 02:59:45;;;;;;;10.07;8.00;;;13.90;99.90;;;;;;5064010;28;20186;-77
2021/05/12 03:02:11;;;;;;;11.80;8.83;;;13.90;99.90;;;;;;5068287;28;20428;-76
2021/05/12 03:04:37;;;;;;;8.50;7.57;;;13.90;99.90;;;;;;5050627;28;20194;-76
2021/05/12 03:07:03;;;;;;;14.03;8.60;;;13.60;99.90;;;;;;5061083;28;20182;-77
2021/05/12 03:09:28;;;;;;;14.97;9.67;;;13.60;99.90;;;;;;5056554;28;20182;-76
2021/05/12 03:11:54;;;;;;;12.53;8.77;;;13.40;99.90;;;;;;5052999;28;20421;-77
2021/05/12 03:14:21;;;;;;;13.10;9.17;;;13.50;99.90;;;;;;5052969;28;20953;-77
2021/05/12 03:16:46;;;;;;;9.60;8.60;;;13.50;99.90;;;;;;5067845;28;20432;-77
2021/05/12 03:19:12;;;;;;;11.33;7.90;;;13.20;99.90;;;;;;5068712;28;20572;-77
2021/05/12 03:21:38;;;;;;;14.40;10.27;;;13.10;99.90;;;;;;5070896;28;20643;-76
2021/05/12 03:24:04;;;;;;;15.77;8.43;;;13.10;99.90;;;;;;5069913;28;20666;-77
2021/05/12 03:26:30;;;;;;;16.20;10.20;;;13.20;99.90;;;;;;5049475;28;20440;-77
2021/05/12 03:28:56;;;;;;;13.10;9.17;;;13.20;99.90;;;;;;5067255;28;20428;-76
2021/05/12 03:31:22;;;;;;;14.03;10.10;;;13.30;99.90;;;;;;5070578;28;20460;-77
2021/05/12 03:33:48;;;;;;;15.73;9.03;;;13.10;99.90;;;;;;5053214;28;20716;-77
2021/05/12 03:36:14;;;;;;;16.50;10.90;;;13.10;99.90;;;;;;5071753;28;20197;-77
2021/05/12 03:38:39;;;;;;;13.93;10.53;;;13.00;99.90;;;;;;5057115;28;20254;-77
2021/05/12 03:41:06;;;;;;;15.47;10.60;;;12.90;99.90;;;;;;5065150;28;20182;-77
2021/05/12 03:43:34;;;;;;;17.70;10.97;;;12.90;99.90;;;;;;5069821;28;20257;-76
2021/05/12 03:46:00;;;;;;;14.60;10.97;;;12.80;99.90;;;;;;5053870;28;20445;-77
2021/05/12 03:48:26;;;;;;;12.70;10.57;;;12.90;99.90;;;;;;5038136;28;20466;-77
2021/05/12 03:50:52;;;;;;;14.13;10.27;;;13.00;99.90;;;;;;5056470;28;20456;-76
2021/05/12 03:53:17;;;;;;;16.50;10.20;;;13.10;99.90;;;;;;5067631;28;20458;-77
2021/05/12 03:55:43;;;;;;;14.30;10.20;;;13.20;99.90;;;;;;5068746;28;20203;-77
2021/05/12 03:58:09;;;;;;;17.57;11.37;;;13.30;99.90;;;;;;5070938;28;20181;-77
2021/05/12 04:00:34;;;;;;;16.30;11.77;;;13.10;99.90;;;;;;5058784;28;20175;-77
2021/05/12 04:03:00;;;;;;;15.17;11.60;;;12.90;99.90;;;;;;5068375;28;20182;-76
2021/05/12 04:05:26;;;;;;;17.00;11.30;;;12.90;99.90;;;;;;5071737;28;20449;-77
2021/05/12 04:07:52;;;;;;;18.83;11.27;;;12.80;99.90;;;;;;5069088;28;20431;-77
2021/05/12 04:10:19;;;;;;;17.40;12.43;;;12.80;99.90;;;;;;5060667;28;20206;-77
2021/05/12 04:12:45;;;;;;;20.03;13.20;;;12.90;99.90;;;;;;5033597;28;20178;-77
2021/05/12 04:15:11;;;;;;;22.47;13.57;;;12.80;99.90;;;;;;5033686;28;20818;-77
2021/05/12 04:17:37;;;;;;;19.07;12.03;;;12.80;99.90;;;;;;5039777;28;20602;-77
2021/05/12 04:20:05;;;;;;;19.13;12.20;;;12.70;99.90;;;;;;5059607;28;20433;-77
2021/05/12 04:22:31;;;;;;;14.33;11.73;;;12.70;99.90;;;;;;5066039;28;20644;-76
2021/05/12 04:24:56;;;;;;;13.80;11.43;;;12.80;99.90;;;;;;5033563;28;20453;-77
2021/05/12 04:27:22;;;;;;;16.20;12.33;;;12.70;99.90;;;;;;5061796;28;20178;-77
2021/05/12 04:29:48;;;;;;;14.17;11.60;;;12.70;99.90;;;;;;5071261;28;20182;-77
2021/05/12 04:32:13;;;;;;;16.43;12.73;;;12.70;99.90;;;;;;5059934;28;20190;-77
2021/05/12 04:34:39;;;;;;;21.33;13.00;;;12.80;99.90;;;;;;5063001;28;20194;-77
2021/05/12 04:37:04;;;;;;;16.87;12.27;;;12.80;99.90;;;;;;5066715;28;20226;-77
2021/05/12 04:39:30;;;;;;;18.30;12.93;;;12.90;99.90;;;;;;5060325;28;20616;-76
2021/05/12 04:41:56;;;;;;;17.33;12.87;;;12.90;99.90;;;;;;5053047;28;20189;-77
2021/05/12 04:44:22;;;;;;;18.80;12.20;;;12.90;99.90;;;;;;5066490;28;20201;-77
2021/05/12 04:46:49;;;;;;;19.90;13.67;;;12.90;99.90;;;;;;5042344;28;20799;-77
2021/05/12 04:49:15;;;;;;;16.93;11.50;;;12.90;99.90;;;;;;5037285;28;20761;-77
2021/05/12 04:51:41;;;;;;;21.70;13.60;;;12.90;99.90;;;;;;5057713;28;20980;-77
2021/05/12 04:54:07;;;;;;;18.30;11.37;;;12.90;99.90;;;;;;5055686;28;20417;-77
2021/05/12 04:56:34;;;;;;;16.00;10.87;;;12.90;99.90;;;;;;5038068;28;20186;-76
2021/05/12 04:59:00;;;;;;;16.13;12.63;;;12.90;99.90;;;;;;5037810;28;20507;-76
2021/05/12 05:01:25;;;;;;;14.90;11.90;;;12.80;99.90;;;;;;5065223;28;20915;-77
2021/05/12 05:03:51;;;;;;;14.43;10.53;;;12.90;99.90;;;;;;5057034;28;20499;-76
2021/05/12 05:06:17;;;;;;;17.57;11.50;;;12.90;99.90;;;;;;5068456;28;20324;-76
2021/05/12 05:08:43;;;;;;;12.53;9.33;;;12.90;99.90;;;;;;5059521;28;20186;-77
2021/05/12 05:11:08;;;;;;;16.20;10.57;;;12.90;99.90;;;;;;5069272;28;20298;-77
2021/05/12 05:13:35;;;;;;;14.60;10.13;;;12.90;99.90;;;;;;5073864;28;20945;-77
2021/05/12 05:16:01;;;;;;;13.03;10.00;;;12.90;99.90;;;;;;5067780;28;20191;-76
2021/05/12 05:18:27;;;;;;;12.43;9.30;;;12.80;99.90;;;;;;5061211;28;20447;-78
2021/05/12 05:20:54;;;;;;;10.77;8.90;;;12.80;99.90;;;;;;5068835;28;20193;-77
2021/05/12 05:23:20;;;;;;;15.17;7.80;;;12.80;99.90;;;;;;5054762;28;20420;-77
2021/05/12 05:25:45;;;;;;;14.97;8.53;;;12.80;99.90;;;;;;5062741;28;20449;-77
2021/05/12 05:28:11;;;;;;;11.10;7.90;;;12.80;99.90;;;;;;5064825;28;20542;-77
2021/05/12 05:30:36;;;;;;;9.80;7.27;;;12.80;99.90;;;;;;5064483;28;20580;-77
2021/05/12 05:33:02;;;;;;;10.13;7.63;;;13.00;99.90;;;;;;5063447;28;20190;-78
2021/05/12 05:35:28;;;;;;;15.50;7.50;;;12.90;99.90;;;;;;5061480;28;20190;-77
2021/05/12 05:37:53;;;;;;;11.23;7.23;;;13.00;99.90;;;;;;5057443;28;20930;-77
2021/05/12 05:40:19;;;;;;;11.63;6.70;;;13.10;99.90;;;;;;5048282;28;20227;-77
2021/05/12 05:42:45;;;;;;;11.90;6.53;;;13.20;99.90;;;;;;5072767;28;20204;-77
2021/05/12 05:45:11;;;;;;;9.37;6.43;;;13.20;99.90;;;;;;5074059;28;20436;-78
2021/05/12 05:47:36;;;;;;;12.73;7.07;;;13.20;99.90;;;;;;5040116;28;20652;-77
2021/05/12 05:50:04;;;;;;;8.43;7.17;;;13.10;99.90;;;;;;5053737;28;20203;-77
2021/05/12 05:52:30;;;;;;;9.33;6.30;;;13.10;99.90;;;;;;5072324;28;20166;-77
2021/05/12 05:54:56;;;;;;;7.47;5.90;;;13.00;99.90;;;;;;5052614;28;21038;-76
2021/05/12 05:57:21;;;;;;;14.47;6.30;;;13.00;99.90;;;;;;5067973;28;20435;-76
2021/05/12 05:59:47;;;;;;;11.60;6.80;;;13.00;99.90;;;;;;5073254;28;20182;-77
2021/05/12 06:02:12;;;;;;;10.67;6.67;;;13.10;99.90;;;;;;5070479;28;20182;-77
2021/05/12 06:04:38;;;;;;;7.27;5.60;;;13.10;99.90;;;;;;5058751;28;20695;-77
2021/05/12 06:07:03;;;;;;;12.97;5.77;;;13.10;99.90;;;;;;5053926;28;20178;-77
2021/05/12 06:09:29;;;;;;;9.30;5.30;;;13.00;99.90;;;;;;5064478;28;20304;-78
2021/05/12 06:11:55;;;;;;;11.23;5.53;;;13.20;99.90;;;;;;5054120;28;20249;-77
2021/05/12 06:14:23;;;;;;;8.47;5.67;;;13.40;99.90;;;;;;5063159;28;20675;-77
2021/05/12 06:16:49;;;;;;;11.37;5.53;;;13.30;99.90;;;;;;5073557;28;20774;-77
2021/05/12 06:19:14;;;;;;;11.47;5.33;;;13.40;99.90;;;;;;5058286;28;20470;-77
2021/05/12 06:21:40;;;;;;;8.43;4.63;;;13.50;99.90;;;;;;5070423;28;20432;-77
2021/05/12 06:24:06;;;;;;;9.77;5.73;;;13.40;99.90;;;;;;5062089;28;20261;-77
2021/05/12 06:26:31;;;;;;;10.83;7.10;;;13.50;99.90;;;;;;5059440;28;20183;-77
2021/05/12 06:28:57;;;;;;;10.47;6.83;;;13.80;99.90;;;;;;5054330;28;20425;-77
2021/05/12 06:31:22;;;;;;;10.10;5.90;;;14.30;99.90;;;;;;5060861;28;20198;-77
2021/05/12 06:33:48;;;;;;;5.47;4.30;;;14.90;99.90;;;;;;5073515;28;20198;-77
2021/05/12 06:36:17;;;;;;;7.10;4.37;;;15.50;99.90;;;;;;5054066;28;20186;-78
2021/05/12 06:38:43;;;;;;;8.57;4.70;;;16.20;99.90;;;;;;5049058;28;20253;-78
2021/05/12 06:41:09;;;;;;;6.60;5.00;;;16.50;99.90;;;;;;5058166;28;20547;-77
2021/05/12 06:43:34;;;;;;;6.90;4.50;;;16.80;99.90;;;;;;5065208;28;20178;-78
2021/05/12 06:46:00;;;;;;;9.97;4.80;;;16.90;99.90;;;;;;5058717;28;20190;-77
2021/05/12 06:48:26;;;;;;;7.77;5.30;;;16.70;99.90;;;;;;5058968;28;20221;-78
2021/05/12 06:50:53;;;;;;;9.70;4.20;;;16.70;99.90;;;;;;5061501;28;20236;-78
2021/05/12 06:53:33;;;;;;;5.83;4.47;;;17.20;99.90;;;;;;5060827;28;20254;-78
2021/05/12 06:55:59;;;;;;;9.93;5.20;;;17.50;99.90;;;;;;5061507;28;20999;-78
2021/05/12 06:58:25;;;;;;;12.97;6.73;;;17.20;99.90;;;;;;5065933;28;20508;-78
2021/05/12 07:00:51;;;;;;;10.80;7.17;;;17.10;99.90;;;;;;5048210;28;20438;-77
2021/05/12 07:03:24;;;;;;;6.40;5.33;;;17.30;99.90;;;;;;5061547;28;20516;-78
2021/05/12 07:05:53;;;;;;;6.90;4.60;;;16.90;99.90;;;;;;5063058;28;20458;-78
2021/05/12 07:08:20;;;;;;;9.00;5.33;;;17.00;99.90;;;;;;5062171;28;20425;-78
2021/05/12 07:10:45;;;;;;;6.37;5.27;;;16.50;99.90;;;;;;5059524;28;20448;-77
2021/05/12 07:13:11;;;;;;;14.13;6.17;;;15.90;99.90;;;;;;5051509;28;20482;-78
2021/05/12 07:15:36;;;;;;;11.43;5.83;;;16.00;99.90;;;;;;5061504;28;20659;-77
2021/05/12 07:18:02;;;;;;;5.90;4.67;;;16.30;99.90;;;;;;5058259;28;20233;-77
2021/05/12 07:20:28;;;;;;;8.40;4.83;;;16.50;99.90;;;;;;5040061;28;20651;-76
2021/05/12 07:23:02;;;;;;;5.70;4.80;;;16.70;99.90;;;;;;5068669;28;20801;-78
2021/05/12 07:25:28;;;;;;;15.03;11.47;;;16.80;99.90;;;;;;5068423;28;20201;-79
2021/05/12 07:27:53;;;;;;;9.90;4.70;;;16.90;99.90;;;;;;5069918;28;20432;-77
2021/05/12 07:30:19;;;;;;;5.17;4.67;;;17.20;99.90;;;;;;5057270;28;20209;-78
2021/05/12 07:32:45;;;;;;;9.03;5.40;;;17.50;99.90;;;;;;5035355;28;20307;-78
2021/05/12 07:35:11;;;;;;;8.47;5.17;;;17.70;99.90;;;;;;5070460;28;20290;-78
2021/05/12 07:37:37;;;;;;;6.23;4.93;;;17.80;99.90;;;;;;5042426;28;20866;-79
2021/05/12 07:40:04;;;;;;;7.70;4.30;;;18.40;99.90;;;;;;5058207;28;20215;-78
2021/05/12 07:42:29;;;;;;;9.10;4.53;;;19.00;99.90;;;;;;5071128;28;20268;-77
2021/05/12 07:44:55;;;;;;;12.93;5.40;;;18.90;99.90;;;;;;5063236;28;21013;-79
2021/05/12 07:47:21;;;;;;;6.00;4.83;;;19.00;99.90;;;;;;5052415;28;20183;-78
2021/05/12 07:49:46;;;;;;;5.70;5.10;;;19.00;99.90;;;;;;5058121;28;20305;-77
2021/05/12 07:52:16;;;;;;;8.07;4.57;;;18.90;99.90;;;;;;5035428;28;20260;-78
2021/05/12 07:54:42;;;;;;;8.90;5.20;;;18.60;99.90;;;;;;5052556;28;20518;-79
2021/05/12 07:57:09;;;;;;;7.80;5.00;;;19.00;99.90;;;;;;5070697;28;20458;-78
2021/05/12 07:59:34;;;;;;;5.10;4.63;;;19.70;99.90;;;;;;5056163;28;20513;-78
2021/05/12 08:02:04;;;;;;;5.73;4.40;;;20.30;99.90;;;;;;5033946;28;20524;-78
2021/05/12 08:04:33;;;;;;;8.13;4.53;;;20.40;99.90;;;;;;5034806;28;20198;-78
2021/05/12 08:06:59;;;;;;;5.20;4.70;;;20.30;99.90;;;;;;5055626;28;20910;-79
2021/05/12 08:09:26;;;;;;;8.03;5.17;;;20.10;99.90;;;;;;5057104;28;20490;-79
2021/05/12 08:11:52;;;;;;;9.87;5.73;;;20.00;99.90;;;;;;5066208;28;20491;-79
2021/05/12 08:14:17;;;;;;;6.83;6.13;;;20.10;99.90;;;;;;5059348;28;20468;-78
2021/05/12 08:16:44;;;;;;;8.20;5.40;;;20.00;99.90;;;;;;5058853;28;20177;-78
2021/05/12 08:19:11;;;;;;;8.33;6.00;;;20.00;99.90;;;;;;5069011;28;20178;-77
2021/05/12 08:21:37;;;;;;;9.23;5.93;;;20.00;99.90;;;;;;5062127;28;20523;-78
2021/05/12 08:24:03;;;;;;;6.00;4.87;;;20.10;99.90;;;;;;5070609;28;20523;-78
2021/05/12 08:26:30;;;;;;;6.10;5.57;;;20.60;99.90;;;;;;5071022;28;20189;-77
2021/05/12 08:28:58;;;;;;;13.73;6.83;;;21.30;99.90;;;;;;5052578;28;20460;-78
2021/05/12 08:31:23;;;;;;;10.70;5.20;;;21.50;99.90;;;;;;5066365;28;21011;-77
2021/05/12 08:33:49;;;;;;;8.90;5.53;;;21.80;99.90;;;;;;5066162;28;20625;-77
2021/05/12 08:36:14;;;;;;;6.00;5.37;;;22.30;99.90;;;;;;5058704;28;20552;-78
2021/05/12 08:38:46;;;;;;;5.37;4.53;;;22.70;99.90;;;;;;5053491;28;20181;-78
2021/05/12 08:41:15;;;;;;;13.60;6.73;;;23.00;99.90;;;;;;5046918;28;20257;-78
2021/05/12 08:43:42;;;;;;;7.63;5.80;;;23.30;99.90;;;;;;5038369;28;20475;-78
2021/05/12 08:46:12;;;;;;;6.83;6.10;;;23.30;99.90;;;;;;5062449;28;20457;-80
2021/05/12 08:48:39;;;;;;;8.50;4.70;;;23.50;99.90;;;;;;5064735;28;20799;-80
2021/05/12 08:51:06;;;;;;;6.20;5.20;;;23.90;99.90;;;;;;5070914;28;20543;-79
2021/05/12 08:53:31;;;;;;;7.70;5.67;;;24.40;99.90;;;;;;5073073;28;20420;-78
2021/05/12 08:55:58;;;;;;;7.20;6.00;;;24.60;99.90;;;;;;5047173;28;20796;-79
2021/05/12 08:58:24;;;;;;;7.53;5.63;;;24.90;99.90;;;;;;5075719;28;20235;-79
2021/05/12 09:00:49;;;;;;;7.30;5.90;;;25.20;99.90;;;;;;5050658;28;20433;-79
2021/05/12 09:03:15;;;;;;;7.23;5.40;;;25.10;99.90;;;;;;5065610;28;20208;-79
2021/05/12 09:05:41;;;;;;;7.30;5.47;;;24.90;98.10;;;;;;5047802;28;20744;-78
2021/05/12 09:08:07;;;;;;;8.20;6.20;;;24.60;99.90;;;;;;5057206;28;20754;-78
2021/05/12 09:10:32;;;;;;;7.53;5.67;;;25.10;99.90;;;;;;5054080;28;20462;-78
2021/05/12 09:13:01;;;;;;;8.13;6.07;;;25.50;95.40;;;;;;5069492;28;20702;-76
2021/05/12 09:15:29;;;;;;;8.93;5.77;;;25.70;93.90;;;;;;5065498;28;20676;-77
2021/05/12 09:17:56;;;;;;;8.53;6.30;;;24.80;93.90;;;;;;5064726;28;20436;-76
2021/05/12 09:20:24;;;;;;;9.60;6.47;;;25.00;95.90;;;;;;5056815;28;20577;-76
2021/05/12 09:23:05;;;;;;;5.60;5.10;;;24.80;93.80;;;;;;5050272;28;21177;-76
2021/05/12 09:25:33;;;;;;;10.03;6.30;;;24.50;95.70;;;;;;5069686;28;20456;-76
2021/05/12 09:28:14;;;;;;;5.87;5.37;;;24.00;97.60;;;;;;5065705;28;20454;-76
2021/05/12 09:30:42;;;;;;;8.90;6.27;;;23.50;99.50;;;;;;5066897;28;20544;-76
2021/05/12 09:33:09;;;;;;;8.70;6.00;;;22.70;97.70;;;;;;5074528;28;20423;-76
2021/05/12 09:35:42;;;;;;;6.97;5.63;;;22.60;99.90;;;;;;5063501;28;20544;-76
2021/05/12 09:38:25;;;;;;;10.10;7.13;;;22.40;99.90;;;;;;5073040;28;20445;-76
2021/05/12 09:41:06;;;;;;;6.67;5.50;;;22.10;99.90;;;;;;5060731;28;20653;-76
2021/05/12 09:43:33;;;;;;;6.70;6.10;;;21.80;99.90;;;;;;5040870;28;20527;-76
2021/05/12 09:46:15;;;;;;;7.87;7.00;;;21.30;99.90;;;;;;5071395;28;20460;-76
2021/05/12 09:48:58;;;;;;;10.60;5.40;;;21.20;99.90;;;;;;5068345;28;20598;-76
2021/05/12 09:51:23;;;;;;;9.40;5.20;;;21.60;99.90;;;;;;5060744;28;20463;-76
2021/05/12 09:54:06;;;;;;;10.17;5.97;;;21.80;99.90;;;;;;5056110;28;20782;-76
2021/05/12 09:56:56;;;;;;;7.63;6.23;;;21.50;99.90;;;;;;5067172;28;20197;-76
2021/05/12 09:59:27;;;;;;;7.20;6.03;;;21.80;99.90;;;;;;5070738;28;20435;-76
2021/05/12 10:02:00;;;;;;;6.17;5.40;;;22.50;99.90;;;;;;5072878;28;20800;-76
2021/05/12 10:07:02;;;;;;;7.30;4.20;;;22.70;99.90;;;;;;5071205;28;20447;-76
2021/05/12 10:09:29;;;;;;;4.90;3.73;;;22.80;99.90;;;;;;5070500;28;20810;-76
2021/05/12 10:12:07;;;;;;;6.13;4.37;;;22.70;97.70;;;;;;5065151;28;20465;-76
2021/05/12 10:14:34;;;;;;;8.30;5.50;;;22.70;99.90;;;;;;5059837;28;20452;-76
2021/05/12 10:17:02;;;;;;;18.03;10.57;;;22.50;99.90;;;;;;5072463;28;20531;-76
2021/05/12 10:19:27;;;;;;;13.97;7.50;;;22.70;99.90;;;;;;5071708;28;20496;-76
2021/05/12 10:21:53;;;;;;;8.20;5.53;;;23.00;99.90;;;;;;5065704;28;20520;-76
2021/05/12 10:24:19;;;;;;;7.37;5.30;;;23.30;99.90;;;;;;5062900;28;20229;-76
2021/05/12 10:26:46;;;;;;;8.00;5.57;;;23.60;99.90;;;;;;5073831;28;20422;-75
2021/05/12 10:29:14;;;;;;;9.40;6.70;;;23.70;99.90;;;;;;5054082;28;20436;-75
2021/05/12 10:31:39;;;;;;;7.33;5.53;;;23.40;98.80;;;;;;5067970;28;20476;-75
2021/05/12 10:34:05;;;;;;;5.70;4.87;;;23.40;99.90;;;;;;5073025;28;20433;-76
2021/05/12 10:36:31;;;;;;;8.73;4.57;;;22.80;95.30;;;;;;5041780;28;20194;-78
2021/05/12 10:39:00;;;;;;;4.73;3.20;;;22.60;97.40;;;;;;5045129;28;20177;-77
2021/05/12 10:41:48;;;;;;;5.37;4.70;;;22.90;95.00;;;;;;5075890;28;20261;-77
2021/05/12 10:47:19;;;;;;;6.80;6.10;;;23.00;97.50;;;;;;5058704;28;20492;-78
2021/05/12 10:49:53;;;;;;;6.47;5.30;;;23.00;99.10;;;;;;5064985;28;20451;-76
2021/05/12 10:52:19;;;;;;;6.13;4.73;;;22.40;98.20;;;;;;5059452;28;20423;-78
2021/05/12 10:54:48;;;;;;;6.00;5.40;;;21.90;98.20;;;;;;5072468;28;20459;-78
2021/05/12 10:57:35;;;;;;;5.93;4.90;;;22.00;99.90;;;;;;5073940;28;20166;-77
2021/05/12 11:00:00;;;;;;;9.90;5.80;;;22.00;99.60;;;;;;5072644;28;20424;-76
2021/05/12 11:03:04;;;;;;;8.73;5.00;;;21.80;99.90;;;;;;5071322;28;20469;-76
2021/05/12 11:06:00;;;;;;;7.10;5.13;;;21.40;99.90;;;;;;5051554;28;20608;-75
2021/05/12 11:08:26;;;;;;;6.43;5.83;;;21.20;99.90;;;;;;5052598;28;20445;-75
2021/05/12 11:10:53;;;;;;;7.13;6.57;;;20.90;99.90;;;;;;5072160;28;20486;-76
2021/05/12 11:13:21;;;;;;;10.93;6.30;;;21.00;99.90;;;;;;5065125;28;20253;-77
2021/05/12 11:16:20;;;;;;;5.37;4.83;;;20.90;99.90;;;;;;5066919;28;20523;-78
2021/05/12 11:18:52;;;;;;;7.13;5.50;;;20.90;99.90;;;;;;5072856;28;20396;-78
2021/05/12 11:21:39;;;;;;;5.60;5.07;;;20.50;99.90;;;;;;5071170;28;20471;-79
2021/05/12 11:24:06;;;;;;;6.10;5.43;;;20.30;99.90;;;;;;5061335;28;20436;-79
2021/05/12 11:32:08;;;;;;;9.20;6.77;;;19.50;99.90;;;;;;5078344;28;20464;-80
2021/05/12 11:34:34;;;;;;;7.40;6.10;;;19.50;99.90;;;;;;5074592;28;20420;-78
2021/05/12 11:37:24;;;;;;;6.93;6.33;;;19.20;99.90;;;;;;5071129;28;20436;-78
2021/05/12 11:39:53;;;;;;;8.40;6.40;;;19.10;99.90;;;;;;5060883;28;20519;-78
2021/05/12 11:42:31;;;;;;;6.00;5.40;;;19.30;99.90;;;;;;5070776;28;20953;-78
2021/05/12 11:45:10;;;;;;;6.97;6.17;;;19.40;99.90;;;;;;5066065;28;20536;-78
2021/05/12 11:47:40;;;;;;;6.70;5.50;;;19.30;99.90;;;;;;5060278;28;20424;-78
2021/05/12 11:50:27;;;;;;;7.40;6.70;;;19.10;99.90;;;;;;5070418;28;20432;-78
2021/05/12 11:52:53;;;;;;;10.23;6.93;;;19.00;99.90;;;;;;5072310;28;20404;-78
2021/05/12 11:55:21;;;;;;;10.33;5.10;;;19.30;99.90;;;;;;5052342;28;20447;-78
2021/05/12 11:57:49;;;;;;;10.33;5.20;;;19.50;99.90;;;;;;5040570;28;20429;-78
2021/05/12 12:00:18;;;;;;;6.67;5.20;;;19.70;99.90;;;;;;5055188;28;20558;-78
2021/05/12 12:03:06;;;;;;;8.63;5.00;;;19.90;99.90;;;;;;5072221;28;20405;-78
2021/05/12 12:05:37;;;;;;;6.40;3.90;;;20.20;99.90;;;;;;5071506;28;20458;-78
2021/05/12 12:08:16;;;;;;;4.63;4.20;;;20.50;99.90;;;;;;5072661;28;20897;-79
2021/05/12 12:10:43;;;;;;;4.37;2.43;;;20.90;99.90;;;;;;5056131;28;20972;-79
2021/05/12 12:13:11;;;;;;;3.80;2.57;;;21.30;99.90;;;;;;5063319;28;20424;-78
2021/05/12 12:15:41;;;;;;;11.23;3.17;;;21.50;99.90;;;;;;5074128;28;20455;-78
2021/05/12 12:18:07;;;;;;;6.83;4.00;;;21.70;99.30;;;;;;5074937;28;20408;-80
2021/05/12 12:20:34;;;;;;;5.83;4.20;;;22.20;98.60;;;;;;5075192;28;20506;-79
2021/05/12 12:23:03;;;;;;;4.27;3.97;;;22.60;94.80;;;;;;5073419;28;21190;-79
2021/05/12 12:25:39;;;;;;;6.20;3.87;;;22.60;91.00;;;;;;5056997;28;20789;-79
2021/05/12 12:28:05;;;;;;;5.63;3.90;;;23.10;92.70;;;;;;5060329;28;20482;-79
2021/05/12 12:30:31;;;;;;;4.10;3.60;;;22.70;89.40;;;;;;5077524;28;20464;-79
2021/05/12 12:32:56;;;;;;;4.73;4.23;;;22.80;87.50;;;;;;5055293;28;20224;-79
2021/05/12 12:35:22;;;;;;;5.80;4.37;;;22.80;83.50;;;;;;5075988;28;20189;-79
2021/05/12 12:37:47;;;;;;;6.20;5.60;;;22.70;83.60;;;;;;5064400;28;20597;-80
2021/05/12 12:40:14;;;;;;;6.90;6.20;;;22.50;91.70;;;;;;5062827;28;20233;-78
2021/05/12 12:42:44;;;;;;;6.30;4.83;;;22.30;92.40;;;;;;5059682;28;20182;-78
2021/05/12 12:45:34;;;;;;;7.53;4.47;;;22.20;94.10;;;;;;5071201;28;20448;-78
2021/05/12 12:48:02;;;;;;;7.20;4.20;;;22.00;94.80;;;;;;5052758;28;20420;-80
2021/05/12 12:50:31;;;;;;;5.63;4.80;;;21.90;92.00;;;;;;5071174;28;21071;-80
2021/05/12 12:52:59;;;;;;;5.83;3.73;;;21.80;92.90;;;;;;5075111;28;20471;-79
2021/05/12 12:55:27;;;;;;;6.00;3.23;;;21.80;93.50;;;;;;5076075;28;20490;-79
2021/05/12 12:57:58;;;;;;;5.67;4.57;;;21.70;97.40;;;;;;5038747;28;20429;-79